Zhytomyr, Ukraine
Current Conditions -  °F | °C
As of 10:00 AM on Friday 24 Oct 2014 (Local Time) from UKKM Reporting Station
Clear Clear  
Wind Chill: 16°   Ceiling: Unl
Heat Index: 27°   Visibility: 6mi
Dew Point: 14°   Wind: 11mph
Humidity: 59%   Direction: 50°NE
Pressure: 30.45"   Gusts: NA
Location:  50.25°N, 28.67°E
Report Text: UKKM 240700Z 05005MPS 020V080 CAVOK M03/M10 Q1031 33CLRD70 NOSIG
Loading
Personal Weather Stations






























Interactive Weather Map
Tropical Storm Tracking
New forecast layout! Learn more

10-Day Weather Forecast

Advertisements
Track Severe Weather on mobile